Terminal Aerodrome Forecast
Issued by NWS Knoxville/Tri Cities, TN

Home | Current Version | Previous Version | Text Only | Print | Product List | Glossary On
Versions: 1 2 3 4 5 6 7 8 9 10 11 12 13 14 15 16 17 18 19 20 21 22
000
FTUS44 KMRX 232021 AAB
TAFTRI
TAF AMD
KTRI 232021Z 2320/2418 VRB03KT 4SM -RA OVC025
      TEMPO 2320/2323 2SM RA BKN009
     FM232300 VRB02KT 6SM BR OVC025
     FM240600 00000KT 4SM BR OVC015
     FM240900 00000KT 2SM BR OVC008
     FM241500 18004KT 4SM BR BKN020=

USA.gov is the U.S. government's official web portal to all federal, state and local government web resources and services.